createdAt,value
2022-09-22T00:01:33.703Z,4.30
2022-09-22T00:04:06.215Z,4.27
2022-09-22T00:06:37.664Z,4.87
2022-09-22T00:09:06.596Z,4.97
2022-09-22T00:11:37.890Z,5.00
2022-09-22T00:14:12.972Z,3.63
2022-09-22T00:16:53.600Z,3.20
2022-09-22T00:19:27.306Z,3.20
2022-09-22T00:21:55.441Z,3.17
2022-09-22T00:24:24.163Z,3.27
2022-09-22T00:26:52.447Z,3.60
2022-09-22T00:29:19.838Z,4.77
2022-09-22T00:31:47.189Z,4.80
2022-09-22T00:34:17.218Z,4.77
2022-09-22T00:36:45.265Z,4.93
2022-09-22T00:39:13.363Z,5.03
2022-09-22T00:41:45.054Z,5.77
2022-09-22T00:44:28.096Z,5.60
2022-09-22T00:47:27.360Z,4.77
2022-09-22T00:50:05.473Z,3.77
2022-09-22T00:52:37.738Z,4.30
2022-09-22T00:55:11.878Z,4.30
2022-09-22T00:57:40.874Z,4.13
2022-09-22T01:00:10.480Z,3.47
2022-09-22T01:02:38.286Z,3.73
2022-09-22T01:05:06.078Z,4.30
2022-09-22T01:07:34.170Z,4.37
2022-09-22T01:10:01.469Z,4.13
2022-09-22T01:12:31.321Z,4.13
2022-09-22T01:15:38.736Z,4.77
2022-09-22T01:18:25.294Z,4.07
2022-09-22T01:21:11.314Z,4.23
2022-09-22T01:23:42.018Z,4.27
2022-09-22T01:26:39.906Z,4.40
2022-09-22T01:29:34.528Z,4.90
2022-09-22T01:32:10.769Z,6.20
2022-09-22T01:34:53.386Z,6.33
2022-09-22T01:37:43.550Z,6.07
2022-09-22T01:40:43.080Z,6.70
2022-09-22T01:43:36.513Z,6.27
2022-09-22T01:46:11.646Z,5.20
2022-09-22T01:48:43.821Z,5.73
2022-09-22T01:51:18.772Z,7.97
2022-09-22T01:53:52.900Z,9.00
2022-09-22T01:56:23.522Z,10.17
2022-09-22T01:58:55.898Z,8.70
2022-09-22T02:01:35.109Z,7.50
2022-09-22T02:04:16.091Z,6.67
2022-09-22T02:07:07.221Z,5.40
2022-09-22T02:09:36.193Z,5.67
2022-09-22T02:12:04.809Z,5.73
2022-09-22T02:14:32.476Z,5.53
2022-09-22T02:17:00.447Z,5.63
2022-09-22T02:19:43.234Z,4.77
2022-09-22T02:22:13.094Z,4.70
2022-09-22T02:24:43.583Z,5.10
2022-09-22T02:27:15.356Z,4.30
2022-09-22T02:29:50.918Z,5.00
2022-09-22T02:32:19.432Z,5.20
2022-09-22T02:34:47.582Z,5.10
2022-09-22T02:37:53.426Z,5.80
2022-09-22T02:40:36.152Z,6.13
2022-09-22T02:43:34.248Z,5.40
2022-09-22T02:46:16.909Z,4.73
2022-09-22T02:48:52.879Z,4.80
2022-09-22T02:51:20.378Z,4.27
2022-09-22T02:53:47.758Z,5.27
2022-09-22T02:56:15.317Z,5.50
2022-09-22T02:58:42.726Z,5.43
2022-09-22T03:01:10.450Z,5.93
2022-09-22T03:03:37.876Z,6.00
2022-09-22T03:06:05.669Z,6.53
2022-09-22T03:08:33.058Z,6.93
2022-09-22T03:11:00.426Z,7.87
2022-09-22T03:13:27.744Z,8.03
2022-09-22T03:15:55.375Z,9.27
2022-09-22T03:18:22.798Z,9.10
2022-09-22T03:20:50.279Z,10.07
2022-09-22T03:23:17.556Z,9.73
2022-09-22T03:25:44.902Z,8.10
2022-09-22T03:28:12.267Z,7.83
2022-09-22T03:30:40.771Z,7.60
2022-09-22T03:33:08.112Z,7.80
2022-09-22T03:35:36.078Z,7.90
2022-09-22T03:38:03.434Z,8.43
2022-09-22T03:40:31.116Z,10.00
2022-09-22T03:42:59.052Z,10.43
2022-09-22T03:45:26.361Z,11.33
2022-09-22T03:47:54.550Z,11.23
2022-09-22T03:50:23.288Z,10.37
2022-09-22T03:52:50.607Z,10.10
2022-09-22T03:55:18.003Z,11.50
2022-09-22T03:57:45.791Z,10.77
2022-09-22T04:00:14.443Z,11.03
2022-09-22T04:02:42.183Z,11.00
2022-09-22T04:05:10.195Z,10.90
2022-09-22T04:07:37.987Z,10.57
2022-09-22T04:10:05.599Z,11.40
2022-09-22T04:12:33.414Z,12.77
2022-09-22T04:15:00.738Z,15.20
2022-09-22T04:17:28.049Z,14.67
2022-09-22T04:19:55.681Z,14.97
2022-09-22T04:22:23.108Z,12.70
2022-09-22T04:24:50.442Z,14.33
2022-09-22T04:27:20.326Z,13.77
2022-09-22T04:29:48.041Z,14.07
2022-09-22T04:32:15.711Z,14.30
2022-09-22T04:34:43.484Z,14.00
2022-09-22T04:37:11.456Z,14.47
2022-09-22T04:39:38.911Z,14.57
2022-09-22T04:42:06.770Z,14.43
2022-09-22T04:44:35.380Z,13.50
2022-09-22T04:47:03.861Z,15.00
2022-09-22T04:49:31.512Z,13.33
2022-09-22T04:51:59.283Z,14.83
2022-09-22T04:54:26.652Z,14.60
2022-09-22T04:56:54.294Z,14.40
2022-09-22T04:59:21.762Z,13.83
2022-09-22T05:01:49.119Z,13.33
2022-09-22T05:04:16.977Z,14.30
2022-09-22T05:06:44.270Z,14.47
2022-09-22T05:09:11.701Z,13.20
2022-09-22T05:11:39.850Z,14.43
2022-09-22T05:14:07.092Z,15.27
2022-09-22T05:16:34.612Z,16.10
2022-09-22T05:19:04.795Z,16.90
2022-09-22T05:21:32.171Z,17.03
2022-09-22T05:23:59.824Z,15.77
2022-09-22T05:26:27.817Z,16.67
2022-09-22T05:28:55.441Z,16.13
2022-09-22T05:31:23.078Z,28.10
2022-09-22T05:33:50.977Z,22.40
2022-09-22T05:36:18.661Z,22.87
2022-09-22T05:38:45.982Z,22.83
2022-09-22T05:41:13.223Z,24.37
2022-09-22T05:43:40.544Z,24.93
2022-09-22T05:46:08.836Z,24.67
2022-09-22T05:48:36.115Z,26.80
2022-09-22T05:51:03.762Z,27.80
2022-09-22T05:53:31.147Z,28.10
2022-09-22T05:56:00.330Z,27.77
2022-09-22T05:58:27.767Z,27.97
2022-09-22T06:00:58.475Z,27.17
2022-09-22T06:03:26.131Z,28.83
2022-09-22T06:05:53.839Z,25.90
2022-09-22T06:08:21.138Z,24.93
2022-09-22T06:10:51.518Z,28.27
2022-09-22T06:13:18.847Z,28.77
2022-09-22T06:15:49.468Z,28.83
2022-09-22T06:18:24.957Z,25.33
2022-09-22T06:20:52.849Z,22.97
2022-09-22T06:23:20.337Z,23.37
2022-09-22T06:25:47.611Z,24.87
2022-09-22T06:28:15.932Z,25.07
2022-09-22T06:30:43.684Z,25.07
2022-09-22T06:33:11.800Z,27.03
2022-09-22T06:35:43.261Z,24.63
2022-09-22T06:38:14.128Z,25.47
2022-09-22T06:40:45.061Z,24.63
2022-09-22T06:43:24.577Z,25.57
2022-09-22T06:45:52.640Z,26.80
2022-09-22T06:48:24.548Z,28.87
2022-09-22T06:50:54.145Z,26.30
2022-09-22T06:53:25.046Z,25.57
2022-09-22T06:55:54.426Z,26.47
2022-09-22T06:58:22.686Z,24.53
2022-09-22T07:00:50.689Z,24.93
2022-09-22T07:03:23.124Z,23.67
2022-09-22T07:05:59.267Z,23.97
2022-09-22T07:08:27.559Z,22.17
2022-09-22T07:11:02.185Z,21.87
2022-09-22T07:13:31.435Z,23.73
2022-09-22T07:16:08.285Z,22.27
2022-09-22T07:18:36.414Z,21.40
2022-09-22T07:21:09.142Z,21.40
2022-09-22T07:23:37.074Z,21.57
2022-09-22T07:26:06.704Z,21.67
2022-09-22T07:28:35.912Z,20.40
2022-09-22T07:31:08.291Z,21.33
2022-09-22T07:33:40.825Z,22.23
2022-09-22T07:36:14.252Z,22.10
2022-09-22T07:38:43.413Z,22.50
2022-09-22T07:41:15.911Z,21.97
2022-09-22T07:43:43.569Z,19.10
2022-09-22T07:46:13.108Z,19.37
2022-09-22T07:48:49.931Z,20.40
2022-09-22T07:51:20.096Z,19.83
2022-09-22T07:53:49.767Z,19.90
2022-09-22T07:56:21.394Z,20.27
2022-09-22T07:58:54.432Z,20.83
2022-09-22T08:01:24.472Z,21.47
2022-09-22T08:03:52.582Z,20.40
2022-09-22T08:06:23.512Z,20.43
2022-09-22T08:08:55.934Z,19.73
2022-09-22T08:11:26.180Z,19.80
2022-09-22T08:14:00.211Z,20.23
2022-09-22T08:16:31.368Z,18.97
2022-09-22T08:19:00.925Z,21.33
2022-09-22T08:21:35.541Z,22.17
2022-09-22T08:24:02.998Z,20.03
2022-09-22T08:26:30.317Z,17.20
2022-09-22T08:28:58.636Z,17.63
2022-09-22T08:31:27.711Z,16.00
2022-09-22T08:33:55.879Z,16.77
2022-09-22T08:36:26.247Z,18.10
2022-09-22T08:38:58.964Z,16.10
2022-09-22T08:41:31.948Z,16.37
2022-09-22T08:44:03.516Z,15.33
2022-09-22T08:46:37.021Z,15.70
2022-09-22T08:49:46.191Z,19.00
2022-09-22T08:52:20.418Z,14.50
2022-09-22T08:54:47.791Z,13.60
2022-09-22T08:57:30.550Z,14.23
2022-09-22T09:00:21.646Z,12.73
2022-09-22T09:03:26.328Z,14.03
2022-09-22T09:06:24.742Z,11.80
2022-09-22T09:09:10.434Z,10.30
2022-09-22T09:11:52.270Z,11.03
2022-09-22T09:14:38.117Z,10.20
2022-09-22T09:17:15.303Z,9.60
2022-09-22T09:19:48.290Z,10.17
2022-09-22T09:22:25.876Z,9.50
2022-09-22T09:25:27.827Z,8.67
2022-09-22T09:28:03.424Z,8.37
2022-09-22T09:30:46.088Z,7.47
2022-09-22T09:33:23.111Z,6.83
2022-09-22T09:35:53.803Z,6.20
2022-09-22T09:38:52.437Z,6.57
2022-09-22T09:41:34.492Z,6.83
2022-09-22T09:44:03.427Z,5.87
2022-09-22T09:46:30.736Z,5.00
2022-09-22T09:49:07.324Z,4.17
2022-09-22T09:51:39.689Z,4.00
2022-09-22T09:54:14.429Z,4.10
2022-09-22T09:57:09.471Z,3.73
2022-09-22T09:59:57.589Z,3.37
2022-09-22T10:02:35.611Z,3.03
2022-09-22T10:05:19.682Z,3.13
2022-09-22T10:07:49.905Z,2.80
2022-09-22T10:10:41.463Z,3.08
2022-09-22T10:13:08.805Z,2.75
2022-09-22T10:15:41.432Z,2.00
2022-09-22T10:18:27.144Z,1.75
2022-09-22T10:21:15.086Z,2.13
2022-09-22T10:23:50.656Z,1.52
2022-09-22T10:26:21.159Z,1.77
2022-09-22T10:29:12.989Z,2.28
2022-09-22T10:31:42.220Z,1.70
2022-09-22T10:34:34.359Z,1.73
2022-09-22T10:37:04.182Z,1.75
2022-09-22T10:39:50.970Z,1.80
2022-09-22T10:42:41.170Z,2.55
2022-09-22T10:45:08.900Z,3.47
2022-09-22T10:47:52.759Z,1.45
2022-09-22T10:50:38.591Z,12.63
2022-09-22T10:53:11.013Z,3.15
2022-09-22T10:55:54.039Z,1.80
2022-09-22T10:58:59.920Z,10.32
2022-09-22T11:01:39.622Z,1.13
2022-09-22T11:04:14.163Z,1.20
2022-09-22T11:07:25.660Z,1.60
2022-09-22T11:10:22.293Z,1.10
2022-09-22T11:13:08.770Z,0.90
2022-09-22T11:15:54.558Z,1.00
2022-09-22T11:18:41.813Z,1.23
2022-09-22T11:21:15.773Z,1.08
2022-09-22T11:24:41.682Z,1.00
2022-09-22T11:27:20.387Z,1.13
2022-09-22T11:30:10.988Z,1.40
2022-09-22T11:32:45.395Z,1.35
2022-09-22T11:35:44.890Z,0.93
2022-09-22T11:38:13.817Z,1.20
2022-09-22T11:41:04.894Z,1.10
2022-09-22T11:43:42.271Z,1.10
2022-09-22T11:46:36.965Z,1.95
2022-09-22T11:49:13.150Z,1.20
2022-09-22T11:52:01.747Z,1.23
2022-09-22T11:54:34.856Z,1.15
2022-09-22T11:57:08.480Z,0.90
2022-09-22T11:59:45.550Z,0.98
2022-09-22T12:02:26.609Z,1.00
2022-09-22T12:05:27.435Z,0.90
2022-09-22T12:08:08.888Z,1.50
2022-09-22T12:10:40.251Z,1.30
2022-09-22T12:13:28.440Z,1.30
2022-09-22T12:16:09.489Z,0.90
2022-09-22T12:18:58.325Z,0.95
2022-09-22T12:21:51.123Z,0.52
2022-09-22T12:24:18.621Z,0.70
2022-09-22T12:26:48.667Z,0.67
2022-09-22T12:29:16.488Z,1.70
2022-09-22T12:31:48.661Z,1.07
2022-09-22T12:34:40.136Z,1.13
2022-09-22T12:37:12.364Z,1.00
2022-09-22T12:39:49.085Z,1.00
2022-09-22T12:42:31.598Z,0.80
2022-09-22T12:45:05.701Z,1.00
2022-09-22T12:47:47.192Z,0.80
2022-09-22T12:50:14.578Z,1.00
2022-09-22T12:52:41.753Z,1.00
2022-09-22T12:55:30.383Z,0.90
2022-09-22T12:58:01.512Z,1.20
2022-09-22T13:00:37.896Z,1.10
2022-09-22T13:03:27.004Z,0.50
2022-09-22T13:05:58.747Z,0.70
2022-09-22T13:08:45.908Z,0.63
2022-09-22T13:11:13.202Z,1.90
2022-09-22T13:13:43.382Z,0.90
2022-09-22T13:16:16.541Z,0.70
2022-09-22T13:19:02.650Z,0.57
2022-09-22T13:21:33.668Z,0.50
2022-09-22T13:24:04.197Z,0.50
2022-09-22T13:26:34.813Z,0.70
2022-09-22T13:29:18.403Z,1.03
2022-09-22T13:31:51.842Z,0.50
2022-09-22T13:34:34.666Z,0.90
2022-09-22T13:37:08.154Z,1.40
2022-09-22T13:39:42.256Z,0.60
2022-09-22T13:42:19.759Z,0.70
2022-09-22T13:44:54.076Z,0.67
2022-09-22T13:47:23.925Z,1.10
2022-09-22T13:49:56.231Z,0.70
2022-09-22T13:52:28.523Z,0.70
2022-09-22T13:55:08.477Z,0.60
2022-09-22T13:57:38.211Z,0.70
2022-09-22T14:00:08.742Z,3.33
2022-09-22T14:02:37.169Z,4.50
2022-09-22T14:05:16.341Z,1.83
2022-09-22T14:08:00.938Z,1.20
2022-09-22T14:10:33.101Z,2.33
2022-09-22T14:13:00.408Z,2.37
2022-09-22T14:15:40.606Z,6.40
2022-09-22T14:18:23.096Z,0.93
2022-09-22T14:20:51.411Z,0.70
2022-09-22T14:23:29.988Z,6.10
2022-09-22T14:26:00.802Z,1.27
2022-09-22T14:28:37.053Z,1.00
2022-09-22T14:31:21.076Z,1.80
2022-09-22T14:33:48.588Z,0.97
2022-09-22T14:36:22.285Z,1.07
2022-09-22T14:39:08.501Z,0.90
2022-09-22T14:41:38.326Z,2.93
2022-09-22T14:44:35.588Z,1.00
2022-09-22T14:47:19.090Z,1.40
2022-09-22T14:49:48.522Z,1.80
2022-09-22T14:52:27.787Z,1.80
2022-09-22T14:54:59.419Z,1.23
2022-09-22T14:57:28.101Z,1.63
2022-09-22T15:00:18.842Z,2.40
2022-09-22T15:02:53.378Z,9.57
2022-09-22T15:05:30.580Z,2.40
2022-09-22T15:07:58.708Z,1.00
2022-09-22T15:10:31.232Z,1.40
2022-09-22T15:13:27.336Z,1.67
2022-09-22T15:15:54.795Z,1.47
2022-09-22T15:18:22.436Z,1.60
2022-09-22T15:21:00.039Z,1.43
2022-09-22T15:23:40.251Z,1.80
2022-09-22T15:26:26.579Z,2.10
2022-09-22T15:28:56.547Z,1.67
2022-09-22T15:31:27.188Z,1.17
2022-09-22T15:34:00.348Z,1.23
2022-09-22T15:36:32.363Z,1.20
2022-09-22T15:39:03.656Z,1.57
2022-09-22T15:41:32.003Z,1.77
2022-09-22T15:43:59.677Z,1.17
2022-09-22T15:46:34.444Z,1.33
2022-09-22T15:49:13.057Z,1.53
2022-09-22T15:51:40.703Z,1.40
2022-09-22T15:54:16.641Z,1.37
2022-09-22T15:56:46.139Z,2.47
2022-09-22T15:59:18.753Z,1.73
2022-09-22T16:01:47.494Z,1.97
2022-09-22T16:04:15.194Z,2.00
2022-09-22T16:06:48.880Z,1.70
2022-09-22T16:09:17.918Z,1.40
2022-09-22T16:11:45.372Z,1.20
2022-09-22T16:14:14.019Z,1.20
2022-09-22T16:16:43.211Z,1.20
2022-09-22T16:19:11.896Z,1.37
2022-09-22T16:21:41.917Z,1.23
2022-09-22T16:24:11.949Z,1.10
2022-09-22T16:26:41.025Z,1.10
2022-09-22T16:29:09.009Z,0.80
2022-09-22T16:31:37.874Z,1.00
2022-09-22T16:34:06.997Z,0.97
2022-09-22T16:36:36.483Z,1.80
2022-09-22T16:39:05.775Z,2.40
2022-09-22T16:41:35.170Z,2.70
2022-09-22T16:44:03.279Z,3.60
2022-09-22T16:46:33.876Z,3.80
2022-09-22T16:49:12.995Z,8.33
2022-09-22T16:51:42.907Z,9.27
2022-09-22T16:54:15.120Z,9.00
2022-09-22T16:56:45.782Z,7.23
2022-09-22T16:59:16.664Z,17.27
2022-09-22T17:01:44.383Z,22.37
2022-09-22T17:04:13.933Z,69.87
2022-09-22T17:06:41.972Z,47.37
2022-09-22T17:09:11.030Z,49.17
2022-09-22T17:11:41.499Z,62.37
2022-09-22T17:14:12.688Z,91.27
2022-09-22T17:16:45.789Z,93.23
2022-09-22T17:19:24.931Z,80.90
2022-09-22T17:21:53.505Z,45.63
2022-09-22T17:24:21.158Z,24.53
2022-09-22T17:26:51.102Z,19.47
2022-09-22T17:29:24.044Z,16.50
2022-09-22T17:32:06.072Z,9.00
2022-09-22T17:34:34.929Z,5.63
2022-09-22T17:37:03.351Z,10.43
2022-09-22T17:39:32.005Z,13.67
2022-09-22T17:41:59.908Z,26.13
2022-09-22T17:44:29.363Z,15.10
2022-09-22T17:47:15.490Z,17.03
2022-09-22T17:50:01.196Z,19.43
2022-09-22T17:52:28.605Z,16.80
2022-09-22T17:55:15.318Z,28.30
2022-09-22T17:57:44.722Z,31.63
2022-09-22T18:00:14.748Z,19.87
2022-09-22T18:02:42.321Z,27.03
2022-09-22T18:05:15.259Z,18.47
2022-09-22T18:07:43.160Z,13.00
2022-09-22T18:10:13.502Z,10.10
2022-09-22T18:12:41.506Z,5.23
2022-09-22T18:15:13.109Z,2.57
2022-09-22T18:17:42.358Z,2.20
2022-09-22T18:20:15.963Z,2.10
2022-09-22T18:22:48.478Z,2.10
2022-09-22T18:25:19.844Z,3.90
2022-09-22T18:27:48.782Z,4.83
2022-09-22T18:30:19.573Z,13.10
2022-09-22T18:32:48.389Z,11.27
2022-09-22T18:35:15.956Z,5.30
2022-09-22T18:37:43.537Z,5.07
2022-09-22T18:40:12.758Z,3.40
2022-09-22T18:42:41.785Z,3.10
2022-09-22T18:45:11.287Z,4.53
2022-09-22T18:47:41.717Z,8.17
2022-09-22T18:50:10.102Z,6.30
2022-09-22T18:52:37.631Z,4.80
2022-09-22T18:55:05.937Z,7.80
2022-09-22T18:57:33.296Z,13.43
2022-09-22T19:00:01.908Z,17.27
2022-09-22T19:02:29.905Z,22.03
2022-09-22T19:04:57.518Z,26.83
2022-09-22T19:07:43.239Z,26.13
2022-09-22T19:10:13.028Z,14.87
2022-09-22T19:12:42.054Z,14.67
2022-09-22T19:15:15.851Z,18.23
2022-09-22T19:17:45.137Z,29.23
2022-09-22T19:20:18.312Z,26.50
2022-09-22T19:22:47.281Z,21.30
2022-09-22T19:25:15.205Z,17.60
2022-09-22T19:27:42.970Z,22.80
2022-09-22T19:30:11.737Z,53.67
2022-09-22T19:32:40.283Z,40.20
2022-09-22T19:35:08.638Z,41.13
2022-09-22T19:37:36.616Z,76.43
2022-09-22T19:40:05.885Z,109.87
2022-09-22T19:42:37.995Z,188.07
2022-09-22T19:45:07.656Z,153.20
2022-09-22T19:47:35.027Z,117.27
2022-09-22T19:50:02.540Z,105.40
2022-09-22T19:52:29.847Z,84.30
2022-09-22T19:54:57.456Z,86.50
2022-09-22T19:57:24.940Z,72.07
2022-09-22T19:59:52.223Z,56.73
2022-09-22T20:02:21.174Z,57.00
2022-09-22T20:04:49.042Z,55.27
2022-09-22T20:07:16.555Z,56.53
2022-09-22T20:09:43.893Z,51.73
2022-09-22T20:12:11.248Z,27.33
2022-09-22T20:14:38.571Z,13.57
2022-09-22T20:17:08.464Z,13.70
2022-09-22T20:19:40.499Z,8.53
2022-09-22T20:22:28.037Z,5.73
2022-09-22T20:25:00.810Z,7.50
2022-09-22T20:27:31.567Z,7.40
2022-09-22T20:29:59.646Z,8.03
2022-09-22T20:32:29.619Z,10.47
2022-09-22T20:34:57.313Z,12.90
2022-09-22T20:37:25.490Z,23.33
2022-09-22T20:39:52.919Z,22.47
2022-09-22T20:42:20.266Z,24.40
2022-09-22T20:44:49.740Z,36.87
2022-09-22T20:47:19.076Z,30.53
2022-09-22T20:49:50.820Z,38.80
2022-09-22T20:52:20.576Z,39.23
2022-09-22T20:54:49.072Z,33.67
2022-09-22T20:57:17.201Z,24.90
2022-09-22T20:59:46.175Z,11.23
2022-09-22T21:02:14.708Z,11.77
2022-09-22T21:04:42.428Z,11.33
2022-09-22T21:07:11.641Z,12.67
2022-09-22T21:09:57.404Z,12.30
2022-09-22T21:12:30.669Z,11.00
2022-09-22T21:14:59.033Z,10.17
2022-09-22T21:17:28.166Z,8.87
2022-09-22T21:19:59.133Z,10.20
2022-09-22T21:22:31.305Z,18.20
2022-09-22T21:24:58.671Z,16.63
2022-09-22T21:27:26.247Z,16.17
2022-09-22T21:29:53.747Z,18.37
2022-09-22T21:32:21.241Z,17.57
2022-09-22T21:34:48.658Z,18.70
2022-09-22T21:37:16.116Z,14.20
2022-09-22T21:39:43.528Z,13.70
2022-09-22T21:42:10.860Z,11.10
2022-09-22T21:44:38.146Z,10.43
2022-09-22T21:47:05.555Z,10.80
2022-09-22T21:49:33.376Z,11.20
2022-09-22T21:52:01.460Z,11.40
2022-09-22T21:54:28.781Z,11.20
2022-09-22T21:56:57.356Z,10.97
2022-09-22T21:59:24.606Z,10.57
2022-09-22T22:01:52.046Z,12.13
2022-09-22T22:04:19.618Z,13.90
2022-09-22T22:06:47.366Z,12.13
2022-09-22T22:09:22.290Z,16.97
2022-09-22T22:11:53.543Z,15.50
2022-09-22T22:14:23.037Z,14.37
2022-09-22T22:16:52.245Z,12.73
2022-09-22T22:19:21.631Z,11.50
2022-09-22T22:21:51.543Z,10.87
2022-09-22T22:24:24.637Z,12.77
2022-09-22T22:26:57.722Z,12.73
2022-09-22T22:29:27.216Z,11.83
2022-09-22T22:31:54.652Z,11.67
2022-09-22T22:34:25.950Z,11.37
2022-09-22T22:36:54.622Z,11.90
2022-09-22T22:39:22.163Z,12.80
2022-09-22T22:41:49.428Z,11.20
2022-09-22T22:44:18.213Z,11.47
2022-09-22T22:46:46.606Z,12.33
2022-09-22T22:49:17.275Z,12.20
2022-09-22T22:51:44.828Z,11.70
2022-09-22T22:54:13.623Z,11.60
2022-09-22T22:56:43.250Z,11.77
2022-09-22T22:59:12.585Z,11.07
2022-09-22T23:01:40.737Z,11.83
2022-09-22T23:04:11.037Z,11.73
2022-09-22T23:06:44.343Z,11.00
2022-09-22T23:09:14.910Z,10.50
2022-09-22T23:11:43.216Z,11.27
2022-09-22T23:14:13.101Z,11.57
2022-09-22T23:16:45.868Z,12.00
2022-09-22T23:19:16.134Z,14.40
2022-09-22T23:21:45.285Z,13.80
2022-09-22T23:24:19.959Z,11.27
2022-09-22T23:26:47.320Z,12.13
2022-09-22T23:29:15.335Z,12.13
2022-09-22T23:31:43.431Z,11.83
2022-09-22T23:34:10.720Z,11.80
2022-09-22T23:36:39.826Z,11.43
2022-09-22T23:39:07.278Z,12.17
2022-09-22T23:41:36.669Z,12.27
2022-09-22T23:44:07.252Z,11.40
2022-09-22T23:46:35.093Z,11.13
2022-09-22T23:49:02.644Z,11.07
2022-09-22T23:51:30.321Z,9.80
2022-09-22T23:53:58.418Z,9.13
2022-09-22T23:56:25.879Z,7.20
2022-09-22T23:58:53.991Z,7.67
